sensor_id;sensor_type;location;lat;lon;timestamp;temperature;humidity
21061;DHT22;10689;50.836;3.266;2022-07-29T00:02:15;19.40;99.90
21061;DHT22;10689;50.836;3.266;2022-07-29T00:04:40;19.40;99.90
21061;DHT22;10689;50.836;3.266;2022-07-29T00:07:06;19.40;99.90
21061;DHT22;10689;50.836;3.266;2022-07-29T00:09:32;19.40;99.90
21061;DHT22;10689;50.836;3.266;2022-07-29T00:12:00;19.40;99.90
21061;DHT22;10689;50.836;3.266;2022-07-29T00:14:26;19.40;99.90
21061;DHT22;10689;50.836;3.266;2022-07-29T00:16:52;19.30;99.90
21061;DHT22;10689;50.836;3.266;2022-07-29T00:19:18;19.20;99.90
21061;DHT22;10689;50.836;3.266;2022-07-29T00:21:43;19.20;99.90
21061;DHT22;10689;50.836;3.266;2022-07-29T00:24:09;19.20;99.90
21061;DHT22;10689;50.836;3.266;2022-07-29T00:26:35;19.00;99.90
21061;DHT22;10689;50.836;3.266;2022-07-29T00:29:02;19.00;99.90
21061;DHT22;10689;50.836;3.266;2022-07-29T00:31:28;19.00;99.90
21061;DHT22;10689;50.836;3.266;2022-07-29T00:33:54;18.90;99.90
21061;DHT22;10689;50.836;3.266;2022-07-29T00:36:20;18.90;99.90
21061;DHT22;10689;50.836;3.266;2022-07-29T00:38:51;19.00;99.90
21061;DHT22;10689;50.836;3.266;2022-07-29T00:41:18;18.90;99.90
21061;DHT22;10689;50.836;3.266;2022-07-29T00:43:44;18.70;99.90
21061;DHT22;10689;50.836;3.266;2022-07-29T00:46:11;18.70;99.90
21061;DHT22;10689;50.836;3.266;2022-07-29T00:48:37;18.70;99.90
21061;DHT22;10689;50.836;3.266;2022-07-29T00:51:05;18.60;99.90
21061;DHT22;10689;50.836;3.266;2022-07-29T00:53:31;18.60;99.90
21061;DHT22;10689;50.836;3.266;2022-07-29T00:55:58;18.60;99.90
21061;DHT22;10689;50.836;3.266;2022-07-29T00:58:24;18.50;99.90
21061;DHT22;10689;50.836;3.266;2022-07-29T01:00:51;18.50;99.90
21061;DHT22;10689;50.836;3.266;2022-07-29T01:03:17;18.40;99.90
21061;DHT22;10689;50.836;3.266;2022-07-29T01:05:45;18.50;99.90
21061;DHT22;10689;50.836;3.266;2022-07-29T01:08:12;18.40;99.90
21061;DHT22;10689;50.836;3.266;2022-07-29T01:10:39;18.20;99.90
21061;DHT22;10689;50.836;3.266;2022-07-29T01:13:06;18.20;99.90
21061;DHT22;10689;50.836;3.266;2022-07-29T01:15:33;18.10;99.90
21061;DHT22;10689;50.836;3.266;2022-07-29T01:18:04;18.20;99.90
21061;DHT22;10689;50.836;3.266;2022-07-29T01:26:54;17.90;99.90
21061;DHT22;10689;50.836;3.266;2022-07-29T01:29:48;17.90;99.90
21061;DHT22;10689;50.836;3.266;2022-07-29T01:32:19;17.80;99.90
21061;DHT22;10689;50.836;3.266;2022-07-29T01:34:52;17.80;99.90
21061;DHT22;10689;50.836;3.266;2022-07-29T01:39:48;17.80;99.90
21061;DHT22;10689;50.836;3.266;2022-07-29T01:42:24;17.70;99.90
21061;DHT22;10689;50.836;3.266;2022-07-29T01:44:59;17.60;99.90
21061;DHT22;10689;50.836;3.266;2022-07-29T01:47:31;17.50;99.90
21061;DHT22;10689;50.836;3.266;2022-07-29T01:49:59;17.50;99.90
21061;DHT22;10689;50.836;3.266;2022-07-29T01:52:49;17.50;99.90
21061;DHT22;10689;50.836;3.266;2022-07-29T01:55:20;17.40;99.90
21061;DHT22;10689;50.836;3.266;2022-07-29T01:57:48;17.50;99.90
21061;DHT22;10689;50.836;3.266;2022-07-29T02:00:15;17.40;99.90
21061;DHT22;10689;50.836;3.266;2022-07-29T02:02:43;17.30;99.90
21061;DHT22;10689;50.836;3.266;2022-07-29T02:05:13;17.30;99.90
21061;DHT22;10689;50.836;3.266;2022-07-29T02:07:41;17.40;99.90
21061;DHT22;10689;50.836;3.266;2022-07-29T02:10:08;17.40;99.90
21061;DHT22;10689;50.836;3.266;2022-07-29T02:12:35;17.30;99.90
21061;DHT22;10689;50.836;3.266;2022-07-29T02:15:03;17.20;99.90
21061;DHT22;10689;50.836;3.266;2022-07-29T02:17:35;17.20;99.90
21061;DHT22;10689;50.836;3.266;2022-07-29T02:20:05;17.20;99.90
21061;DHT22;10689;50.836;3.266;2022-07-29T02:22:33;17.20;99.90
21061;DHT22;10689;50.836;3.266;2022-07-29T02:25:01;17.20;99.90
21061;DHT22;10689;50.836;3.266;2022-07-29T02:27:28;17.10;99.90
21061;DHT22;10689;50.836;3.266;2022-07-29T02:29:54;17.10;99.90
21061;DHT22;10689;50.836;3.266;2022-07-29T02:32:21;17.10;99.90
21061;DHT22;10689;50.836;3.266;2022-07-29T02:34:49;17.10;99.90
21061;DHT22;10689;50.836;3.266;2022-07-29T02:37:16;17.10;99.90
21061;DHT22;10689;50.836;3.266;2022-07-29T02:39:44;17.10;99.90
21061;DHT22;10689;50.836;3.266;2022-07-29T02:42:14;17.00;99.90
21061;DHT22;10689;50.836;3.266;2022-07-29T02:44:41;16.90;99.90
21061;DHT22;10689;50.836;3.266;2022-07-29T02:50:00;16.90;99.90
21061;DHT22;10689;50.836;3.266;2022-07-29T02:52:39;16.80;99.90
21061;DHT22;10689;50.836;3.266;2022-07-29T02:55:46;16.80;99.90
21061;DHT22;10689;50.836;3.266;2022-07-29T02:58:28;16.80;99.90
21061;DHT22;10689;50.836;3.266;2022-07-29T03:01:01;16.70;99.90
21061;DHT22;10689;50.836;3.266;2022-07-29T03:03:33;16.60;99.90
21061;DHT22;10689;50.836;3.266;2022-07-29T03:06:01;16.50;99.90
21061;DHT22;10689;50.836;3.266;2022-07-29T03:08:27;16.50;99.90
21061;DHT22;10689;50.836;3.266;2022-07-29T03:10:54;16.40;99.90
21061;DHT22;10689;50.836;3.266;2022-07-29T03:13:21;16.40;99.90
21061;DHT22;10689;50.836;3.266;2022-07-29T03:15:47;16.30;99.90
21061;DHT22;10689;50.836;3.266;2022-07-29T03:18:14;16.30;99.90
21061;DHT22;10689;50.836;3.266;2022-07-29T03:20:40;16.30;99.90
21061;DHT22;10689;50.836;3.266;2022-07-29T03:23:08;16.30;99.90
21061;DHT22;10689;50.836;3.266;2022-07-29T03:25:34;16.20;99.90
21061;DHT22;10689;50.836;3.266;2022-07-29T03:27:59;16.20;99.90
21061;DHT22;10689;50.836;3.266;2022-07-29T03:30:25;16.20;99.90
21061;DHT22;10689;50.836;3.266;2022-07-29T03:32:53;16.30;99.90
21061;DHT22;10689;50.836;3.266;2022-07-29T03:35:19;16.20;99.90
21061;DHT22;10689;50.836;3.266;2022-07-29T03:37:45;16.20;99.90
21061;DHT22;10689;50.836;3.266;2022-07-29T03:40:17;16.20;99.90
21061;DHT22;10689;50.836;3.266;2022-07-29T03:42:44;16.10;99.90
21061;DHT22;10689;50.836;3.266;2022-07-29T03:45:13;16.10;99.90
21061;DHT22;10689;50.836;3.266;2022-07-29T03:47:44;16.10;99.90
21061;DHT22;10689;50.836;3.266;2022-07-29T03:50:12;16.10;99.90
21061;DHT22;10689;50.836;3.266;2022-07-29T03:52:38;16.00;99.90
21061;DHT22;10689;50.836;3.266;2022-07-29T03:55:05;16.00;99.90
21061;DHT22;10689;50.836;3.266;2022-07-29T03:57:31;16.00;99.90
21061;DHT22;10689;50.836;3.266;2022-07-29T03:59:58;16.00;99.90
21061;DHT22;10689;50.836;3.266;2022-07-29T04:02:26;16.00;99.90
21061;DHT22;10689;50.836;3.266;2022-07-29T04:04:52;16.00;99.90
21061;DHT22;10689;50.836;3.266;2022-07-29T04:07:18;16.00;99.90
21061;DHT22;10689;50.836;3.266;2022-07-29T04:09:43;15.80;99.90
21061;DHT22;10689;50.836;3.266;2022-07-29T04:12:09;15.80;99.90
21061;DHT22;10689;50.836;3.266;2022-07-29T04:14:35;15.80;99.90
21061;DHT22;10689;50.836;3.266;2022-07-29T04:17:02;15.80;99.90
21061;DHT22;10689;50.836;3.266;2022-07-29T04:19:28;15.90;99.90
21061;DHT22;10689;50.836;3.266;2022-07-29T04:21:54;15.80;99.90
21061;DHT22;10689;50.836;3.266;2022-07-29T04:24:20;15.80;99.90
21061;DHT22;10689;50.836;3.266;2022-07-29T04:26:47;16.00;99.90
21061;DHT22;10689;50.836;3.266;2022-07-29T04:29:13;16.10;99.90
21061;DHT22;10689;50.836;3.266;2022-07-29T04:31:40;16.20;99.90
21061;DHT22;10689;50.836;3.266;2022-07-29T04:34:06;16.20;99.90
21061;DHT22;10689;50.836;3.266;2022-07-29T04:36:32;16.10;99.90
21061;DHT22;10689;50.836;3.266;2022-07-29T04:38:58;16.00;99.90
21061;DHT22;10689;50.836;3.266;2022-07-29T04:41:24;16.00;99.90
21061;DHT22;10689;50.836;3.266;2022-07-29T04:43:50;15.90;99.90
21061;DHT22;10689;50.836;3.266;2022-07-29T04:46:15;15.90;99.90
21061;DHT22;10689;50.836;3.266;2022-07-29T04:48:41;16.10;99.90
21061;DHT22;10689;50.836;3.266;2022-07-29T04:51:07;16.20;99.90
21061;DHT22;10689;50.836;3.266;2022-07-29T04:53:32;16.20;99.90
21061;DHT22;10689;50.836;3.266;2022-07-29T04:55:58;16.30;99.90
21061;DHT22;10689;50.836;3.266;2022-07-29T04:58:24;16.40;99.90
21061;DHT22;10689;50.836;3.266;2022-07-29T05:00:50;16.40;99.90
21061;DHT22;10689;50.836;3.266;2022-07-29T05:03:16;16.60;99.90
21061;DHT22;10689;50.836;3.266;2022-07-29T05:05:42;16.70;99.90
21061;DHT22;10689;50.836;3.266;2022-07-29T05:08:08;16.70;99.90
21061;DHT22;10689;50.836;3.266;2022-07-29T05:10:34;16.70;99.90
21061;DHT22;10689;50.836;3.266;2022-07-29T05:13:04;16.90;99.90
21061;DHT22;10689;50.836;3.266;2022-07-29T05:15:31;17.00;99.90
21061;DHT22;10689;50.836;3.266;2022-07-29T05:17:57;17.10;99.90
21061;DHT22;10689;50.836;3.266;2022-07-29T05:20:22;17.40;99.90
21061;DHT22;10689;50.836;3.266;2022-07-29T05:22:57;17.50;99.90
21061;DHT22;10689;50.836;3.266;2022-07-29T05:25:23;17.70;99.90
21061;DHT22;10689;50.836;3.266;2022-07-29T05:27:49;17.80;99.90
21061;DHT22;10689;50.836;3.266;2022-07-29T05:30:15;17.90;99.90
21061;DHT22;10689;50.836;3.266;2022-07-29T05:32:40;18.20;99.90
21061;DHT22;10689;50.836;3.266;2022-07-29T05:35:06;18.30;99.90
21061;DHT22;10689;50.836;3.266;2022-07-29T05:37:33;18.30;99.90
21061;DHT22;10689;50.836;3.266;2022-07-29T05:39:59;18.20;99.90
21061;DHT22;10689;50.836;3.266;2022-07-29T05:42:25;18.30;99.90
21061;DHT22;10689;50.836;3.266;2022-07-29T05:44:52;18.40;99.90
21061;DHT22;10689;50.836;3.266;2022-07-29T05:47:18;18.50;99.90
21061;DHT22;10689;50.836;3.266;2022-07-29T05:49:44;18.70;99.90
21061;DHT22;10689;50.836;3.266;2022-07-29T05:52:11;18.80;99.90
21061;DHT22;10689;50.836;3.266;2022-07-29T05:54:38;18.90;99.90
21061;DHT22;10689;50.836;3.266;2022-07-29T05:57:05;19.20;99.90
21061;DHT22;10689;50.836;3.266;2022-07-29T05:59:34;19.20;99.90
21061;DHT22;10689;50.836;3.266;2022-07-29T06:02:00;19.10;99.90
21061;DHT22;10689;50.836;3.266;2022-07-29T06:04:26;19.10;99.90
21061;DHT22;10689;50.836;3.266;2022-07-29T06:06:52;19.30;99.90
21061;DHT22;10689;50.836;3.266;2022-07-29T06:09:18;19.50;99.90
21061;DHT22;10689;50.836;3.266;2022-07-29T06:11:44;19.50;99.90
21061;DHT22;10689;50.836;3.266;2022-07-29T06:14:09;19.60;99.90
21061;DHT22;10689;50.836;3.266;2022-07-29T06:16:35;19.80;99.90
21061;DHT22;10689;50.836;3.266;2022-07-29T06:19:01;20.00;99.90
21061;DHT22;10689;50.836;3.266;2022-07-29T06:21:26;20.10;99.90
21061;DHT22;10689;50.836;3.266;2022-07-29T06:23:52;20.20;99.90
21061;DHT22;10689;50.836;3.266;2022-07-29T06:26:17;20.30;99.90
21061;DHT22;10689;50.836;3.266;2022-07-29T06:28:43;20.40;99.90
21061;DHT22;10689;50.836;3.266;2022-07-29T06:31:09;20.40;99.90
21061;DHT22;10689;50.836;3.266;2022-07-29T06:33:34;20.50;99.90
21061;DHT22;10689;50.836;3.266;2022-07-29T06:36:00;20.60;99.90
21061;DHT22;10689;50.836;3.266;2022-07-29T06:38:28;20.60;99.90
21061;DHT22;10689;50.836;3.266;2022-07-29T06:40:54;20.70;99.90
21061;DHT22;10689;50.836;3.266;2022-07-29T06:43:37;20.80;99.90
21061;DHT22;10689;50.836;3.266;2022-07-29T06:46:06;20.80;99.90
21061;DHT22;10689;50.836;3.266;2022-07-29T06:48:33;20.90;99.90
21061;DHT22;10689;50.836;3.266;2022-07-29T06:50:59;21.00;99.90
21061;DHT22;10689;50.836;3.266;2022-07-29T06:53:26;21.20;99.90
21061;DHT22;10689;50.836;3.266;2022-07-29T06:55:52;21.30;99.90
21061;DHT22;10689;50.836;3.266;2022-07-29T06:58:18;21.20;99.90
21061;DHT22;10689;50.836;3.266;2022-07-29T07:00:46;21.10;99.90
21061;DHT22;10689;50.836;3.266;2022-07-29T07:03:13;21.20;99.90
21061;DHT22;10689;50.836;3.266;2022-07-29T07:05:39;21.40;99.90
21061;DHT22;10689;50.836;3.266;2022-07-29T07:08:05;21.60;99.90
21061;DHT22;10689;50.836;3.266;2022-07-29T07:10:32;21.50;99.90
21061;DHT22;10689;50.836;3.266;2022-07-29T07:12:59;21.40;99.90
21061;DHT22;10689;50.836;3.266;2022-07-29T07:15:24;21.50;99.90
21061;DHT22;10689;50.836;3.266;2022-07-29T07:17:50;21.50;99.90
21061;DHT22;10689;50.836;3.266;2022-07-29T07:20:17;21.70;99.90
21061;DHT22;10689;50.836;3.266;2022-07-29T07:22:43;21.60;99.90
21061;DHT22;10689;50.836;3.266;2022-07-29T07:25:09;21.60;99.90
21061;DHT22;10689;50.836;3.266;2022-07-29T07:27:36;21.60;99.90
21061;DHT22;10689;50.836;3.266;2022-07-29T07:30:06;21.60;99.90
21061;DHT22;10689;50.836;3.266;2022-07-29T07:32:33;21.70;99.90
21061;DHT22;10689;50.836;3.266;2022-07-29T07:34:58;21.80;99.90
21061;DHT22;10689;50.836;3.266;2022-07-29T07:37:24;21.90;99.90
21061;DHT22;10689;50.836;3.266;2022-07-29T07:39:51;21.90;99.90
21061;DHT22;10689;50.836;3.266;2022-07-29T07:42:17;22.10;99.90
21061;DHT22;10689;50.836;3.266;2022-07-29T07:44:43;22.10;99.90
21061;DHT22;10689;50.836;3.266;2022-07-29T07:47:14;22.20;99.90
21061;DHT22;10689;50.836;3.266;2022-07-29T07:49:40;22.30;99.90
21061;DHT22;10689;50.836;3.266;2022-07-29T07:52:06;22.40;99.90
21061;DHT22;10689;50.836;3.266;2022-07-29T07:54:32;22.40;99.90
21061;DHT22;10689;50.836;3.266;2022-07-29T07:56:57;22.50;99.90
21061;DHT22;10689;50.836;3.266;2022-07-29T07:59:23;22.50;99.90
21061;DHT22;10689;50.836;3.266;2022-07-29T08:01:50;22.50;99.90
21061;DHT22;10689;50.836;3.266;2022-07-29T08:04:16;22.80;99.90
21061;DHT22;10689;50.836;3.266;2022-07-29T08:06:42;23.00;99.90
21061;DHT22;10689;50.836;3.266;2022-07-29T08:09:07;22.90;99.90
21061;DHT22;10689;50.836;3.266;2022-07-29T08:11:33;22.80;99.90
21061;DHT22;10689;50.836;3.266;2022-07-29T08:13:59;22.90;99.90
21061;DHT22;10689;50.836;3.266;2022-07-29T08:16:27;23.00;99.90
21061;DHT22;10689;50.836;3.266;2022-07-29T08:18:53;23.00;99.90
21061;DHT22;10689;50.836;3.266;2022-07-29T08:21:23;23.10;99.90
21061;DHT22;10689;50.836;3.266;2022-07-29T08:23:50;23.50;99.90
21061;DHT22;10689;50.836;3.266;2022-07-29T08:26:19;23.50;99.90
21061;DHT22;10689;50.836;3.266;2022-07-29T08:28:46;23.80;99.90
21061;DHT22;10689;50.836;3.266;2022-07-29T08:31:15;23.90;99.90
21061;DHT22;10689;50.836;3.266;2022-07-29T08:33:42;24.10;99.90
21061;DHT22;10689;50.836;3.266;2022-07-29T08:36:08;24.10;99.90
21061;DHT22;10689;50.836;3.266;2022-07-29T08:38:34;24.10;99.90
21061;DHT22;10689;50.836;3.266;2022-07-29T08:41:00;24.20;99.90
21061;DHT22;10689;50.836;3.266;2022-07-29T08:43:28;24.30;99.90
21061;DHT22;10689;50.836;3.266;2022-07-29T08:45:54;24.50;99.90
21061;DHT22;10689;50.836;3.266;2022-07-29T08:48:22;24.60;99.90
21061;DHT22;10689;50.836;3.266;2022-07-29T08:50:50;24.60;99.90
21061;DHT22;10689;50.836;3.266;2022-07-29T08:53:17;24.70;99.90
21061;DHT22;10689;50.836;3.266;2022-07-29T08:55:48;24.60;99.90
21061;DHT22;10689;50.836;3.266;2022-07-29T08:58:15;24.80;99.90
21061;DHT22;10689;50.836;3.266;2022-07-29T09:00:48;24.90;99.90
21061;DHT22;10689;50.836;3.266;2022-07-29T09:03:18;24.90;99.90
21061;DHT22;10689;50.836;3.266;2022-07-29T09:05:48;24.80;99.90
21061;DHT22;10689;50.836;3.266;2022-07-29T09:08:15;24.80;99.90
21061;DHT22;10689;50.836;3.266;2022-07-29T09:10:41;25.00;99.90
21061;DHT22;10689;50.836;3.266;2022-07-29T09:13:08;25.20;99.90
21061;DHT22;10689;50.836;3.266;2022-07-29T09:15:34;25.00;99.90
21061;DHT22;10689;50.836;3.266;2022-07-29T09:18:00;25.40;99.90
21061;DHT22;10689;50.836;3.266;2022-07-29T09:20:26;25.70;99.90
21061;DHT22;10689;50.836;3.266;2022-07-29T09:23:13;25.90;99.90
21061;DHT22;10689;50.836;3.266;2022-07-29T09:25:40;26.00;99.90
21061;DHT22;10689;50.836;3.266;2022-07-29T09:28:11;26.10;99.90
21061;DHT22;10689;50.836;3.266;2022-07-29T09:30:57;26.10;99.90
21061;DHT22;10689;50.836;3.266;2022-07-29T09:33:33;26.20;99.90
21061;DHT22;10689;50.836;3.266;2022-07-29T09:36:07;26.10;99.90
21061;DHT22;10689;50.836;3.266;2022-07-29T09:38:34;26.10;99.90
21061;DHT22;10689;50.836;3.266;2022-07-29T09:41:02;26.20;99.90
21061;DHT22;10689;50.836;3.266;2022-07-29T09:43:28;26.20;99.90
21061;DHT22;10689;50.836;3.266;2022-07-29T09:45:54;26.30;99.90
21061;DHT22;10689;50.836;3.266;2022-07-29T09:48:22;26.50;99.90
21061;DHT22;10689;50.836;3.266;2022-07-29T09:50:48;26.60;99.90
21061;DHT22;10689;50.836;3.266;2022-07-29T09:53:35;26.60;99.90
21061;DHT22;10689;50.836;3.266;2022-07-29T09:56:02;26.40;99.90
21061;DHT22;10689;50.836;3.266;2022-07-29T09:58:28;26.40;99.90
21061;DHT22;10689;50.836;3.266;2022-07-29T10:00:55;26.40;99.90
21061;DHT22;10689;50.836;3.266;2022-07-29T10:03:21;26.40;99.90
21061;DHT22;10689;50.836;3.266;2022-07-29T10:06:08;26.50;99.90
21061;DHT22;10689;50.836;3.266;2022-07-29T10:08:34;26.60;99.90
21061;DHT22;10689;50.836;3.266;2022-07-29T10:11:17;26.50;99.90
21061;DHT22;10689;50.836;3.266;2022-07-29T10:13:44;26.40;99.90
21061;DHT22;10689;50.836;3.266;2022-07-29T10:16:11;26.40;99.90
21061;DHT22;10689;50.836;3.266;2022-07-29T10:18:39;26.50;99.90
21061;DHT22;10689;50.836;3.266;2022-07-29T10:21:05;26.40;99.90
21061;DHT22;10689;50.836;3.266;2022-07-29T10:23:31;26.20;99.90
21061;DHT22;10689;50.836;3.266;2022-07-29T10:25:57;26.20;99.90
21061;DHT22;10689;50.836;3.266;2022-07-29T10:28:23;26.10;99.90
21061;DHT22;10689;50.836;3.266;2022-07-29T10:30:51;26.20;99.90
21061;DHT22;10689;50.836;3.266;2022-07-29T10:36:32;25.70;99.90
21061;DHT22;10689;50.836;3.266;2022-07-29T10:39:18;25.80;99.90
21061;DHT22;10689;50.836;3.266;2022-07-29T10:42:07;26.20;99.90
21061;DHT22;10689;50.836;3.266;2022-07-29T10:44:40;26.60;99.90
21061;DHT22;10689;50.836;3.266;2022-07-29T10:47:06;27.00;99.90
21061;DHT22;10689;50.836;3.266;2022-07-29T10:49:32;27.30;99.90
21061;DHT22;10689;50.836;3.266;2022-07-29T10:52:07;27.60;99.90
21061;DHT22;10689;50.836;3.266;2022-07-29T10:59:38;28.20;99.90
21061;DHT22;10689;50.836;3.266;2022-07-29T11:04:59;27.70;99.90
21061;DHT22;10689;50.836;3.266;2022-07-29T11:07:27;27.80;99.90
21061;DHT22;10689;50.836;3.266;2022-07-29T11:15:26;27.30;99.90
21061;DHT22;10689;50.836;3.266;2022-07-29T11:25:54;28.40;99.90
21061;DHT22;10689;50.836;3.266;2022-07-29T11:28:34;28.60;99.90
21061;DHT22;10689;50.836;3.266;2022-07-29T11:31:01;28.30;99.90
21061;DHT22;10689;50.836;3.266;2022-07-29T11:33:31;28.60;99.90
21061;DHT22;10689;50.836;3.266;2022-07-29T11:36:14;28.70;99.90
21061;DHT22;10689;50.836;3.266;2022-07-29T11:38:41;28.90;99.90
21061;DHT22;10689;50.836;3.266;2022-07-29T11:43:54;29.20;99.90
21061;DHT22;10689;50.836;3.266;2022-07-29T11:46:49;29.80;99.90
21061;DHT22;10689;50.836;3.266;2022-07-29T11:49:20;29.70;99.90
21061;DHT22;10689;50.836;3.266;2022-07-29T11:51:57;29.80;99.90
21061;DHT22;10689;50.836;3.266;2022-07-29T11:54:31;29.70;99.90
21061;DHT22;10689;50.836;3.266;2022-07-29T11:56:58;29.70;99.90
21061;DHT22;10689;50.836;3.266;2022-07-29T11:59:24;29.70;99.90
21061;DHT22;10689;50.836;3.266;2022-07-29T12:01:54;29.60;99.90
21061;DHT22;10689;50.836;3.266;2022-07-29T12:04:20;29.30;99.90
21061;DHT22;10689;50.836;3.266;2022-07-29T12:06:52;29.50;99.90
21061;DHT22;10689;50.836;3.266;2022-07-29T12:09:19;29.70;99.90
21061;DHT22;10689;50.836;3.266;2022-07-29T12:11:46;30.10;99.90
21061;DHT22;10689;50.836;3.266;2022-07-29T12:14:28;29.60;99.90
21061;DHT22;10689;50.836;3.266;2022-07-29T12:16:55;29.20;99.90
21061;DHT22;10689;50.836;3.266;2022-07-29T12:19:21;29.30;99.90
21061;DHT22;10689;50.836;3.266;2022-07-29T12:21:47;29.30;99.90
21061;DHT22;10689;50.836;3.266;2022-07-29T12:24:13;29.60;99.90
21061;DHT22;10689;50.836;3.266;2022-07-29T12:26:53;29.90;99.90
21061;DHT22;10689;50.836;3.266;2022-07-29T12:29:19;30.20;99.90
21061;DHT22;10689;50.836;3.266;2022-07-29T12:31:45;30.20;99.90
21061;DHT22;10689;50.836;3.266;2022-07-29T12:34:15;30.00;99.90
21061;DHT22;10689;50.836;3.266;2022-07-29T12:36:42;29.60;99.90
21061;DHT22;10689;50.836;3.266;2022-07-29T12:39:09;29.60;99.90
21061;DHT22;10689;50.836;3.266;2022-07-29T12:41:35;29.90;99.90
21061;DHT22;10689;50.836;3.266;2022-07-29T12:44:01;29.90;99.90
21061;DHT22;10689;50.836;3.266;2022-07-29T12:46:27;29.60;99.90
21061;DHT22;10689;50.836;3.266;2022-07-29T12:48:53;29.70;99.90
21061;DHT22;10689;50.836;3.266;2022-07-29T12:51:33;30.00;99.90
21061;DHT22;10689;50.836;3.266;2022-07-29T12:56:32;30.50;99.90
21061;DHT22;10689;50.836;3.266;2022-07-29T12:58:58;30.70;99.90
21061;DHT22;10689;50.836;3.266;2022-07-29T13:01:23;30.80;99.90
21061;DHT22;10689;50.836;3.266;2022-07-29T13:03:54;30.60;99.90
21061;DHT22;10689;50.836;3.266;2022-07-29T13:09:15;29.90;99.90
21061;DHT22;10689;50.836;3.266;2022-07-29T13:11:42;29.60;99.90
21061;DHT22;10689;50.836;3.266;2022-07-29T13:14:11;29.60;99.90
21061;DHT22;10689;50.836;3.266;2022-07-29T13:19:45;29.70;99.90
21061;DHT22;10689;50.836;3.266;2022-07-29T13:22:14;29.50;99.90
21061;DHT22;10689;50.836;3.266;2022-07-29T13:24:53;29.40;99.90
21061;DHT22;10689;50.836;3.266;2022-07-29T13:27:21;29.40;99.90
21061;DHT22;10689;50.836;3.266;2022-07-29T13:29:47;29.10;99.90
21061;DHT22;10689;50.836;3.266;2022-07-29T13:32:14;28.80;99.90
21061;DHT22;10689;50.836;3.266;2022-07-29T13:34:40;28.50;99.90
21061;DHT22;10689;50.836;3.266;2022-07-29T13:37:06;28.20;99.90
21061;DHT22;10689;50.836;3.266;2022-07-29T13:39:31;28.00;99.90
21061;DHT22;10689;50.836;3.266;2022-07-29T13:41:57;28.10;99.90
21061;DHT22;10689;50.836;3.266;2022-07-29T13:44:23;28.10;99.90
21061;DHT22;10689;50.836;3.266;2022-07-29T13:46:49;28.10;99.90
21061;DHT22;10689;50.836;3.266;2022-07-29T13:49:15;28.20;99.90
21061;DHT22;10689;50.836;3.266;2022-07-29T13:51:41;28.10;99.90
21061;DHT22;10689;50.836;3.266;2022-07-29T13:54:07;28.30;99.90
21061;DHT22;10689;50.836;3.266;2022-07-29T13:56:33;28.70;99.90
21061;DHT22;10689;50.836;3.266;2022-07-29T13:58:59;29.00;99.90
21061;DHT22;10689;50.836;3.266;2022-07-29T14:01:26;29.10;99.90
21061;DHT22;10689;50.836;3.266;2022-07-29T14:03:52;29.20;99.90
21061;DHT22;10689;50.836;3.266;2022-07-29T14:06:18;29.90;99.90
21061;DHT22;10689;50.836;3.266;2022-07-29T14:08:44;30.80;99.90
21061;DHT22;10689;50.836;3.266;2022-07-29T14:11:10;31.70;99.90
21061;DHT22;10689;50.836;3.266;2022-07-29T14:13:35;32.40;99.90
21061;DHT22;10689;50.836;3.266;2022-07-29T14:16:01;32.60;99.90
21061;DHT22;10689;50.836;3.266;2022-07-29T14:18:27;32.90;99.90
21061;DHT22;10689;50.836;3.266;2022-07-29T14:20:53;33.00;99.90
21061;DHT22;10689;50.836;3.266;2022-07-29T14:23:18;32.70;99.90
21061;DHT22;10689;50.836;3.266;2022-07-29T14:25:44;32.90;99.90
21061;DHT22;10689;50.836;3.266;2022-07-29T14:28:10;33.60;99.90
21061;DHT22;10689;50.836;3.266;2022-07-29T14:30:35;34.30;99.90
21061;DHT22;10689;50.836;3.266;2022-07-29T14:33:02;34.40;99.90
21061;DHT22;10689;50.836;3.266;2022-07-29T14:35:28;34.60;99.90
21061;DHT22;10689;50.836;3.266;2022-07-29T14:37:54;34.50;99.90
21061;DHT22;10689;50.836;3.266;2022-07-29T14:40:20;34.10;99.90
21061;DHT22;10689;50.836;3.266;2022-07-29T14:42:45;33.40;99.90
21061;DHT22;10689;50.836;3.266;2022-07-29T14:45:11;33.00;99.90
21061;DHT22;10689;50.836;3.266;2022-07-29T14:47:37;33.30;99.90
21061;DHT22;10689;50.836;3.266;2022-07-29T14:50:04;33.90;99.90
21061;DHT22;10689;50.836;3.266;2022-07-29T14:52:30;33.40;99.90
21061;DHT22;10689;50.836;3.266;2022-07-29T14:54:57;33.20;99.90
21061;DHT22;10689;50.836;3.266;2022-07-29T14:57:23;33.20;99.90
21061;DHT22;10689;50.836;3.266;2022-07-29T14:59:49;32.70;99.90
21061;DHT22;10689;50.836;3.266;2022-07-29T15:02:14;32.50;99.90
21061;DHT22;10689;50.836;3.266;2022-07-29T15:04:40;32.30;99.90
21061;DHT22;10689;50.836;3.266;2022-07-29T15:07:05;32.50;99.90
21061;DHT22;10689;50.836;3.266;2022-07-29T15:09:31;32.40;99.90
21061;DHT22;10689;50.836;3.266;2022-07-29T15:11:57;32.20;99.90
21061;DHT22;10689;50.836;3.266;2022-07-29T15:14:23;32.70;99.90
21061;DHT22;10689;50.836;3.266;2022-07-29T15:16:49;33.50;99.90
21061;DHT22;10689;50.836;3.266;2022-07-29T15:19:15;33.80;99.90
21061;DHT22;10689;50.836;3.266;2022-07-29T15:21:41;34.10;99.90
21061;DHT22;10689;50.836;3.266;2022-07-29T15:24:06;34.10;99.60
21061;DHT22;10689;50.836;3.266;2022-07-29T15:26:33;33.80;99.70
21061;DHT22;10689;50.836;3.266;2022-07-29T15:28:59;33.90;99.90
21061;DHT22;10689;50.836;3.266;2022-07-29T15:31:25;34.40;99.90
21061;DHT22;10689;50.836;3.266;2022-07-29T15:33:50;34.60;99.80
21061;DHT22;10689;50.836;3.266;2022-07-29T15:36:16;34.10;99.70
21061;DHT22;10689;50.836;3.266;2022-07-29T15:38:42;34.10;99.80
21061;DHT22;10689;50.836;3.266;2022-07-29T15:41:09;34.20;99.60
21061;DHT22;10689;50.836;3.266;2022-07-29T15:43:35;34.70;99.40
21061;DHT22;10689;50.836;3.266;2022-07-29T15:46:01;34.50;99.40
21061;DHT22;10689;50.836;3.266;2022-07-29T15:48:45;35.10;99.60
21061;DHT22;10689;50.836;3.266;2022-07-29T15:51:11;34.40;99.30
21061;DHT22;10689;50.836;3.266;2022-07-29T15:53:37;34.00;99.10
21061;DHT22;10689;50.836;3.266;2022-07-29T15:56:03;33.60;99.70
21061;DHT22;10689;50.836;3.266;2022-07-29T15:58:29;34.10;99.50
21061;DHT22;10689;50.836;3.266;2022-07-29T16:00:55;34.20;99.10
21061;DHT22;10689;50.836;3.266;2022-07-29T16:03:21;34.50;99.20
21061;DHT22;10689;50.836;3.266;2022-07-29T16:05:47;34.40;99.30
21061;DHT22;10689;50.836;3.266;2022-07-29T16:08:13;34.60;99.00
21061;DHT22;10689;50.836;3.266;2022-07-29T16:10:39;34.20;98.70
21061;DHT22;10689;50.836;3.266;2022-07-29T16:13:05;34.30;98.80
21061;DHT22;10689;50.836;3.266;2022-07-29T16:15:31;34.00;99.00
21061;DHT22;10689;50.836;3.266;2022-07-29T16:17:57;34.20;98.80
21061;DHT22;10689;50.836;3.266;2022-07-29T16:20:22;34.20;98.60
21061;DHT22;10689;50.836;3.266;2022-07-29T16:22:48;34.20;98.70